sensor_id;sensor_type;location;lat;lon;timestamp;P1;durP1;ratioP1;P2;durP2;ratioP2
11173;SDS011;5643;50.856;12.088;2023-07-29T00:02:09;0.70;;;0.70;;
11173;SDS011;5643;50.856;12.088;2023-07-29T00:04:39;0.50;;;0.50;;
11173;SDS011;5643;50.856;12.088;2023-07-29T00:07:07;0.63;;;0.63;;
11173;SDS011;5643;50.856;12.088;2023-07-29T00:09:35;0.90;;;0.70;;
11173;SDS011;5643;50.856;12.088;2023-07-29T00:12:07;0.70;;;0.70;;
11173;SDS011;5643;50.856;12.088;2023-07-29T00:14:37;0.83;;;0.70;;
11173;SDS011;5643;50.856;12.088;2023-07-29T00:17:05;1.13;;;0.70;;
11173;SDS011;5643;50.856;12.088;2023-07-29T00:19:33;0.73;;;0.73;;
11173;SDS011;5643;50.856;12.088;2023-07-29T00:22:01;0.50;;;0.50;;
11173;SDS011;5643;50.856;12.088;2023-07-29T00:24:29;0.50;;;0.50;;
11173;SDS011;5643;50.856;12.088;2023-07-29T00:26:58;0.60;;;0.60;;
11173;SDS011;5643;50.856;12.088;2023-07-29T00:29:26;0.70;;;0.70;;
11173;SDS011;5643;50.856;12.088;2023-07-29T00:31:56;0.50;;;0.50;;
11173;SDS011;5643;50.856;12.088;2023-07-29T00:34:25;0.70;;;0.70;;
11173;SDS011;5643;50.856;12.088;2023-07-29T00:36:53;0.47;;;0.47;;
11173;SDS011;5643;50.856;12.088;2023-07-29T00:39:21;0.50;;;0.50;;
11173;SDS011;5643;50.856;12.088;2023-07-29T00:41:50;0.40;;;0.40;;
11173;SDS011;5643;50.856;12.088;2023-07-29T00:44:18;0.50;;;0.50;;
11173;SDS011;5643;50.856;12.088;2023-07-29T00:46:46;0.40;;;0.40;;
11173;SDS011;5643;50.856;12.088;2023-07-29T00:49:17;0.40;;;0.40;;
11173;SDS011;5643;50.856;12.088;2023-07-29T00:51:45;0.40;;;0.40;;
11173;SDS011;5643;50.856;12.088;2023-07-29T00:54:13;0.50;;;0.50;;
11173;SDS011;5643;50.856;12.088;2023-07-29T00:56:42;0.60;;;0.60;;
11173;SDS011;5643;50.856;12.088;2023-07-29T00:59:11;0.43;;;0.43;;
11173;SDS011;5643;50.856;12.088;2023-07-29T01:01:40;0.40;;;0.40;;
11173;SDS011;5643;50.856;12.088;2023-07-29T01:04:09;0.40;;;0.40;;
11173;SDS011;5643;50.856;12.088;2023-07-29T01:06:41;0.60;;;0.60;;
11173;SDS011;5643;50.856;12.088;2023-07-29T01:09:14;0.30;;;0.30;;
11173;SDS011;5643;50.856;12.088;2023-07-29T01:11:57;0.40;;;0.40;;
11173;SDS011;5643;50.856;12.088;2023-07-29T01:14:26;0.40;;;0.40;;
11173;SDS011;5643;50.856;12.088;2023-07-29T01:16:58;0.30;;;0.30;;
11173;SDS011;5643;50.856;12.088;2023-07-29T01:19:34;0.60;;;0.33;;
11173;SDS011;5643;50.856;12.088;2023-07-29T01:22:10;0.40;;;0.40;;
11173;SDS011;5643;50.856;12.088;2023-07-29T01:24:39;0.30;;;0.30;;
11173;SDS011;5643;50.856;12.088;2023-07-29T01:27:07;0.40;;;0.40;;
11173;SDS011;5643;50.856;12.088;2023-07-29T01:29:38;0.33;;;0.33;;
11173;SDS011;5643;50.856;12.088;2023-07-29T01:32:10;0.57;;;0.57;;
11173;SDS011;5643;50.856;12.088;2023-07-29T01:34:41;0.40;;;0.40;;
11173;SDS011;5643;50.856;12.088;2023-07-29T01:37:10;0.50;;;0.50;;
11173;SDS011;5643;50.856;12.088;2023-07-29T01:39:42;0.40;;;0.40;;
11173;SDS011;5643;50.856;12.088;2023-07-29T01:42:14;0.37;;;0.37;;
11173;SDS011;5643;50.856;12.088;2023-07-29T01:44:41;0.30;;;0.30;;
11173;SDS011;5643;50.856;12.088;2023-07-29T01:47:10;0.40;;;0.40;;
11173;SDS011;5643;50.856;12.088;2023-07-29T01:49:38;0.40;;;0.30;;
11173;SDS011;5643;50.856;12.088;2023-07-29T01:52:05;0.33;;;0.33;;
11173;SDS011;5643;50.856;12.088;2023-07-29T01:54:36;0.40;;;0.40;;
11173;SDS011;5643;50.856;12.088;2023-07-29T01:57:10;0.40;;;0.40;;
11173;SDS011;5643;50.856;12.088;2023-07-29T01:59:37;0.30;;;0.30;;
11173;SDS011;5643;50.856;12.088;2023-07-29T02:02:03;0.40;;;0.30;;
11173;SDS011;5643;50.856;12.088;2023-07-29T02:04:31;0.40;;;0.40;;
11173;SDS011;5643;50.856;12.088;2023-07-29T02:06:58;0.37;;;0.37;;
11173;SDS011;5643;50.856;12.088;2023-07-29T02:09:25;0.30;;;0.30;;
11173;SDS011;5643;50.856;12.088;2023-07-29T02:11:53;0.40;;;0.40;;
11173;SDS011;5643;50.856;12.088;2023-07-29T02:14:22;0.30;;;0.30;;
11173;SDS011;5643;50.856;12.088;2023-07-29T02:16:49;0.40;;;0.40;;
11173;SDS011;5643;50.856;12.088;2023-07-29T02:19:16;0.57;;;0.40;;
11173;SDS011;5643;50.856;12.088;2023-07-29T02:21:43;0.40;;;0.40;;
11173;SDS011;5643;50.856;12.088;2023-07-29T02:24:10;0.50;;;0.50;;
11173;SDS011;5643;50.856;12.088;2023-07-29T02:26:38;0.40;;;0.40;;
11173;SDS011;5643;50.856;12.088;2023-07-29T02:29:05;0.40;;;0.40;;
11173;SDS011;5643;50.856;12.088;2023-07-29T02:31:34;0.60;;;0.60;;
11173;SDS011;5643;50.856;12.088;2023-07-29T02:34:03;0.40;;;0.40;;
11173;SDS011;5643;50.856;12.088;2023-07-29T02:36:30;0.50;;;0.50;;
11173;SDS011;5643;50.856;12.088;2023-07-29T02:38:58;0.40;;;0.40;;
11173;SDS011;5643;50.856;12.088;2023-07-29T02:41:26;0.33;;;0.33;;
11173;SDS011;5643;50.856;12.088;2023-07-29T02:43:53;0.40;;;0.40;;
11173;SDS011;5643;50.856;12.088;2023-07-29T02:46:20;0.30;;;0.30;;
11173;SDS011;5643;50.856;12.088;2023-07-29T02:48:49;0.50;;;0.50;;
11173;SDS011;5643;50.856;12.088;2023-07-29T02:51:17;0.40;;;0.40;;
11173;SDS011;5643;50.856;12.088;2023-07-29T02:53:44;0.30;;;0.30;;
11173;SDS011;5643;50.856;12.088;2023-07-29T02:56:11;0.40;;;0.40;;
11173;SDS011;5643;50.856;12.088;2023-07-29T02:58:39;0.40;;;0.40;;
11173;SDS011;5643;50.856;12.088;2023-07-29T03:01:06;0.40;;;0.40;;
11173;SDS011;5643;50.856;12.088;2023-07-29T03:03:34;0.30;;;0.30;;
11173;SDS011;5643;50.856;12.088;2023-07-29T03:06:03;0.67;;;0.30;;
11173;SDS011;5643;50.856;12.088;2023-07-29T03:08:34;0.57;;;0.57;;
11173;SDS011;5643;50.856;12.088;2023-07-29T03:11:05;0.50;;;0.50;;
11173;SDS011;5643;50.856;12.088;2023-07-29T03:13:32;0.50;;;0.50;;
11173;SDS011;5643;50.856;12.088;2023-07-29T03:16:04;0.43;;;0.43;;
11173;SDS011;5643;50.856;12.088;2023-07-29T03:18:31;0.50;;;0.50;;
11173;SDS011;5643;50.856;12.088;2023-07-29T03:20:59;0.43;;;0.43;;
11173;SDS011;5643;50.856;12.088;2023-07-29T03:23:30;0.50;;;0.50;;
11173;SDS011;5643;50.856;12.088;2023-07-29T03:25:57;0.50;;;0.50;;
11173;SDS011;5643;50.856;12.088;2023-07-29T03:28:25;0.60;;;0.60;;
11173;SDS011;5643;50.856;12.088;2023-07-29T03:30:53;0.50;;;0.50;;
11173;SDS011;5643;50.856;12.088;2023-07-29T03:33:20;0.50;;;0.50;;
11173;SDS011;5643;50.856;12.088;2023-07-29T03:35:48;0.70;;;0.70;;
11173;SDS011;5643;50.856;12.088;2023-07-29T03:38:16;0.50;;;0.50;;
11173;SDS011;5643;50.856;12.088;2023-07-29T03:40:45;0.60;;;0.60;;
11173;SDS011;5643;50.856;12.088;2023-07-29T03:43:13;0.50;;;0.50;;
11173;SDS011;5643;50.856;12.088;2023-07-29T03:45:40;0.50;;;0.50;;
11173;SDS011;5643;50.856;12.088;2023-07-29T03:48:07;0.67;;;0.53;;
11173;SDS011;5643;50.856;12.088;2023-07-29T03:50:35;0.80;;;0.80;;
11173;SDS011;5643;50.856;12.088;2023-07-29T03:53:02;0.50;;;0.50;;
11173;SDS011;5643;50.856;12.088;2023-07-29T03:55:29;0.60;;;0.60;;
11173;SDS011;5643;50.856;12.088;2023-07-29T03:57:58;0.70;;;0.70;;
11173;SDS011;5643;50.856;12.088;2023-07-29T04:03:20;0.70;;;0.70;;
11173;SDS011;5643;50.856;12.088;2023-07-29T04:05:48;0.67;;;0.67;;
11173;SDS011;5643;50.856;12.088;2023-07-29T04:08:15;0.63;;;0.63;;
11173;SDS011;5643;50.856;12.088;2023-07-29T04:10:42;0.80;;;0.80;;
11173;SDS011;5643;50.856;12.088;2023-07-29T04:13:11;0.80;;;0.80;;
11173;SDS011;5643;50.856;12.088;2023-07-29T04:15:38;0.50;;;0.50;;
11173;SDS011;5643;50.856;12.088;2023-07-29T04:18:06;0.57;;;0.57;;
11173;SDS011;5643;50.856;12.088;2023-07-29T04:20:33;0.63;;;0.63;;
11173;SDS011;5643;50.856;12.088;2023-07-29T04:23:07;0.70;;;0.70;;
11173;SDS011;5643;50.856;12.088;2023-07-29T04:25:34;0.60;;;0.60;;
11173;SDS011;5643;50.856;12.088;2023-07-29T04:28:02;0.70;;;0.70;;
11173;SDS011;5643;50.856;12.088;2023-07-29T04:30:32;0.50;;;0.50;;
11173;SDS011;5643;50.856;12.088;2023-07-29T04:32:59;0.70;;;0.70;;
11173;SDS011;5643;50.856;12.088;2023-07-29T04:35:27;0.70;;;0.70;;
11173;SDS011;5643;50.856;12.088;2023-07-29T04:37:55;0.60;;;0.60;;
11173;SDS011;5643;50.856;12.088;2023-07-29T04:40:23;0.50;;;0.50;;
11173;SDS011;5643;50.856;12.088;2023-07-29T04:42:51;0.70;;;0.70;;
11173;SDS011;5643;50.856;12.088;2023-07-29T04:45:19;0.60;;;0.60;;
11173;SDS011;5643;50.856;12.088;2023-07-29T04:47:48;0.70;;;0.70;;
11173;SDS011;5643;50.856;12.088;2023-07-29T04:50:16;0.63;;;0.63;;
11173;SDS011;5643;50.856;12.088;2023-07-29T04:52:44;0.60;;;0.60;;
11173;SDS011;5643;50.856;12.088;2023-07-29T04:55:11;0.60;;;0.60;;
11173;SDS011;5643;50.856;12.088;2023-07-29T04:57:41;0.60;;;0.60;;
11173;SDS011;5643;50.856;12.088;2023-07-29T05:00:09;0.63;;;0.63;;
11173;SDS011;5643;50.856;12.088;2023-07-29T05:02:37;0.70;;;0.70;;
11173;SDS011;5643;50.856;12.088;2023-07-29T05:05:08;0.83;;;0.83;;
11173;SDS011;5643;50.856;12.088;2023-07-29T05:07:36;0.70;;;0.70;;
11173;SDS011;5643;50.856;12.088;2023-07-29T05:10:04;0.70;;;0.70;;
11173;SDS011;5643;50.856;12.088;2023-07-29T05:12:32;0.70;;;0.70;;
11173;SDS011;5643;50.856;12.088;2023-07-29T05:14:59;0.50;;;0.50;;
11173;SDS011;5643;50.856;12.088;2023-07-29T05:17:27;0.53;;;0.53;;
11173;SDS011;5643;50.856;12.088;2023-07-29T05:19:57;0.50;;;0.50;;
11173;SDS011;5643;50.856;12.088;2023-07-29T05:22:26;0.40;;;0.40;;
11173;SDS011;5643;50.856;12.088;2023-07-29T05:24:53;0.50;;;0.50;;
11173;SDS011;5643;50.856;12.088;2023-07-29T05:27:21;0.60;;;0.60;;
11173;SDS011;5643;50.856;12.088;2023-07-29T05:29:48;0.60;;;0.60;;
11173;SDS011;5643;50.856;12.088;2023-07-29T05:32:17;0.60;;;0.60;;
11173;SDS011;5643;50.856;12.088;2023-07-29T05:34:44;0.57;;;0.57;;
11173;SDS011;5643;50.856;12.088;2023-07-29T05:37:12;0.50;;;0.50;;
11173;SDS011;5643;50.856;12.088;2023-07-29T05:39:41;0.60;;;0.60;;
11173;SDS011;5643;50.856;12.088;2023-07-29T05:42:10;0.60;;;0.60;;
11173;SDS011;5643;50.856;12.088;2023-07-29T05:44:38;0.60;;;0.60;;
11173;SDS011;5643;50.856;12.088;2023-07-29T05:47:06;0.60;;;0.60;;
11173;SDS011;5643;50.856;12.088;2023-07-29T05:49:36;0.60;;;0.60;;
11173;SDS011;5643;50.856;12.088;2023-07-29T05:52:07;0.60;;;0.60;;
11173;SDS011;5643;50.856;12.088;2023-07-29T05:54:37;0.60;;;0.60;;
11173;SDS011;5643;50.856;12.088;2023-07-29T05:57:11;0.50;;;0.50;;
11173;SDS011;5643;50.856;12.088;2023-07-29T05:59:39;0.57;;;0.50;;
11173;SDS011;5643;50.856;12.088;2023-07-29T06:02:07;0.50;;;0.50;;
11173;SDS011;5643;50.856;12.088;2023-07-29T06:04:45;0.40;;;0.40;;
11173;SDS011;5643;50.856;12.088;2023-07-29T06:07:14;0.50;;;0.50;;
11173;SDS011;5643;50.856;12.088;2023-07-29T06:09:42;0.43;;;0.43;;
11173;SDS011;5643;50.856;12.088;2023-07-29T06:12:11;0.60;;;0.43;;
11173;SDS011;5643;50.856;12.088;2023-07-29T06:14:38;0.50;;;0.50;;
11173;SDS011;5643;50.856;12.088;2023-07-29T06:17:11;0.47;;;0.47;;
11173;SDS011;5643;50.856;12.088;2023-07-29T06:19:41;0.60;;;0.60;;
11173;SDS011;5643;50.856;12.088;2023-07-29T06:22:09;0.50;;;0.50;;
11173;SDS011;5643;50.856;12.088;2023-07-29T06:24:38;0.60;;;0.60;;
11173;SDS011;5643;50.856;12.088;2023-07-29T06:27:09;0.68;;;0.50;;
11173;SDS011;5643;50.856;12.088;2023-07-29T06:29:41;0.50;;;0.50;;
11173;SDS011;5643;50.856;12.088;2023-07-29T06:32:11;0.40;;;0.40;;
11173;SDS011;5643;50.856;12.088;2023-07-29T06:34:38;0.40;;;0.40;;
11173;SDS011;5643;50.856;12.088;2023-07-29T06:37:06;0.50;;;0.50;;
11173;SDS011;5643;50.856;12.088;2023-07-29T06:39:34;0.40;;;0.40;;
11173;SDS011;5643;50.856;12.088;2023-07-29T06:42:01;0.50;;;0.50;;
11173;SDS011;5643;50.856;12.088;2023-07-29T06:44:29;0.60;;;0.60;;
11173;SDS011;5643;50.856;12.088;2023-07-29T06:46:59;0.93;;;0.60;;
11173;SDS011;5643;50.856;12.088;2023-07-29T06:49:27;0.40;;;0.40;;
11173;SDS011;5643;50.856;12.088;2023-07-29T06:51:58;1.02;;;0.40;;
11173;SDS011;5643;50.856;12.088;2023-07-29T06:54:27;1.10;;;0.52;;
11173;SDS011;5643;50.856;12.088;2023-07-29T06:56:58;0.47;;;0.47;;
11173;SDS011;5643;50.856;12.088;2023-07-29T06:59:27;0.52;;;0.52;;
11173;SDS011;5643;50.856;12.088;2023-07-29T07:01:56;0.50;;;0.50;;
11173;SDS011;5643;50.856;12.088;2023-07-29T07:04:27;0.50;;;0.50;;
11173;SDS011;5643;50.856;12.088;2023-07-29T07:06:57;0.50;;;0.50;;
11173;SDS011;5643;50.856;12.088;2023-07-29T07:09:27;0.50;;;0.50;;
11173;SDS011;5643;50.856;12.088;2023-07-29T07:11:56;0.50;;;0.50;;
11173;SDS011;5643;50.856;12.088;2023-07-29T07:14:23;0.55;;;0.55;;
11173;SDS011;5643;50.856;12.088;2023-07-29T07:16:51;0.40;;;0.40;;
11173;SDS011;5643;50.856;12.088;2023-07-29T07:19:19;0.60;;;0.60;;
11173;SDS011;5643;50.856;12.088;2023-07-29T07:21:48;0.40;;;0.40;;
11173;SDS011;5643;50.856;12.088;2023-07-29T07:24:16;0.25;;;0.25;;
11173;SDS011;5643;50.856;12.088;2023-07-29T07:26:52;0.40;;;0.40;;
11173;SDS011;5643;50.856;12.088;2023-07-29T07:29:23;0.50;;;0.50;;
11173;SDS011;5643;50.856;12.088;2023-07-29T07:31:52;0.50;;;0.50;;
11173;SDS011;5643;50.856;12.088;2023-07-29T07:34:21;0.40;;;0.40;;
11173;SDS011;5643;50.856;12.088;2023-07-29T07:36:50;0.55;;;0.55;;
11173;SDS011;5643;50.856;12.088;2023-07-29T07:39:22;0.85;;;0.50;;
11173;SDS011;5643;50.856;12.088;2023-07-29T07:41:51;0.50;;;0.50;;
11173;SDS011;5643;50.856;12.088;2023-07-29T07:44:20;0.30;;;0.30;;
11173;SDS011;5643;50.856;12.088;2023-07-29T07:46:49;0.40;;;0.40;;
11173;SDS011;5643;50.856;12.088;2023-07-29T07:49:22;0.40;;;0.40;;
11173;SDS011;5643;50.856;12.088;2023-07-29T07:51:53;0.40;;;0.40;;
11173;SDS011;5643;50.856;12.088;2023-07-29T07:54:20;0.30;;;0.30;;
11173;SDS011;5643;50.856;12.088;2023-07-29T07:56:48;0.30;;;0.30;;
11173;SDS011;5643;50.856;12.088;2023-07-29T07:59:18;0.40;;;0.40;;
11173;SDS011;5643;50.856;12.088;2023-07-29T08:01:47;0.30;;;0.30;;
11173;SDS011;5643;50.856;12.088;2023-07-29T08:04:17;0.40;;;0.40;;
11173;SDS011;5643;50.856;12.088;2023-07-29T08:06:47;0.40;;;0.40;;
11173;SDS011;5643;50.856;12.088;2023-07-29T08:09:19;0.30;;;0.30;;
11173;SDS011;5643;50.856;12.088;2023-07-29T08:11:48;0.47;;;0.47;;
11173;SDS011;5643;50.856;12.088;2023-07-29T08:14:16;0.63;;;0.50;;
11173;SDS011;5643;50.856;12.088;2023-07-29T08:16:44;0.30;;;0.30;;
11173;SDS011;5643;50.856;12.088;2023-07-29T08:19:12;0.30;;;0.30;;
11173;SDS011;5643;50.856;12.088;2023-07-29T08:21:39;0.40;;;0.40;;
11173;SDS011;5643;50.856;12.088;2023-07-29T08:24:07;0.30;;;0.30;;
11173;SDS011;5643;50.856;12.088;2023-07-29T08:26:36;0.50;;;0.50;;
11173;SDS011;5643;50.856;12.088;2023-07-29T08:29:04;0.30;;;0.30;;
11173;SDS011;5643;50.856;12.088;2023-07-29T08:31:32;0.20;;;0.20;;
11173;SDS011;5643;50.856;12.088;2023-07-29T08:34:03;0.40;;;0.40;;
11173;SDS011;5643;50.856;12.088;2023-07-29T08:36:30;0.20;;;0.20;;
11173;SDS011;5643;50.856;12.088;2023-07-29T08:38:58;0.30;;;0.30;;
11173;SDS011;5643;50.856;12.088;2023-07-29T08:41:29;0.40;;;0.40;;
11173;SDS011;5643;50.856;12.088;2023-07-29T08:44:01;0.40;;;0.40;;
11173;SDS011;5643;50.856;12.088;2023-07-29T08:46:33;0.40;;;0.40;;
11173;SDS011;5643;50.856;12.088;2023-07-29T08:49:02;0.40;;;0.40;;
11173;SDS011;5643;50.856;12.088;2023-07-29T08:51:30;0.43;;;0.43;;
11173;SDS011;5643;50.856;12.088;2023-07-29T08:53:58;0.40;;;0.40;;
11173;SDS011;5643;50.856;12.088;2023-07-29T08:56:26;0.30;;;0.30;;
11173;SDS011;5643;50.856;12.088;2023-07-29T08:58:53;0.75;;;0.30;;
11173;SDS011;5643;50.856;12.088;2023-07-29T09:01:26;0.40;;;0.40;;
11173;SDS011;5643;50.856;12.088;2023-07-29T09:03:56;0.43;;;0.43;;
11173;SDS011;5643;50.856;12.088;2023-07-29T09:06:24;0.40;;;0.40;;
11173;SDS011;5643;50.856;12.088;2023-07-29T09:08:53;0.40;;;0.40;;
11173;SDS011;5643;50.856;12.088;2023-07-29T09:11:22;0.40;;;0.40;;
11173;SDS011;5643;50.856;12.088;2023-07-29T09:13:51;0.40;;;0.40;;
11173;SDS011;5643;50.856;12.088;2023-07-29T09:16:20;1.00;;;0.57;;
11173;SDS011;5643;50.856;12.088;2023-07-29T09:18:54;0.50;;;0.50;;
11173;SDS011;5643;50.856;12.088;2023-07-29T09:21:23;0.47;;;0.43;;
11173;SDS011;5643;50.856;12.088;2023-07-29T09:23:52;0.40;;;0.40;;
11173;SDS011;5643;50.856;12.088;2023-07-29T09:26:39;0.32;;;0.32;;
11173;SDS011;5643;50.856;12.088;2023-07-29T09:29:21;0.40;;;0.40;;
11173;SDS011;5643;50.856;12.088;2023-07-29T09:31:51;0.40;;;0.40;;
11173;SDS011;5643;50.856;12.088;2023-07-29T09:34:28;0.50;;;0.50;;
11173;SDS011;5643;50.856;12.088;2023-07-29T09:37:05;0.52;;;0.52;;
11173;SDS011;5643;50.856;12.088;2023-07-29T09:39:34;0.38;;;0.38;;
11173;SDS011;5643;50.856;12.088;2023-07-29T09:42:02;0.43;;;0.43;;
11173;SDS011;5643;50.856;12.088;2023-07-29T09:44:32;0.40;;;0.40;;
11173;SDS011;5643;50.856;12.088;2023-07-29T09:47:03;0.65;;;0.40;;
11173;SDS011;5643;50.856;12.088;2023-07-29T09:49:35;0.43;;;0.43;;
11173;SDS011;5643;50.856;12.088;2023-07-29T09:52:04;0.40;;;0.40;;
11173;SDS011;5643;50.856;12.088;2023-07-29T09:54:33;0.38;;;0.30;;
11173;SDS011;5643;50.856;12.088;2023-07-29T09:57:02;0.50;;;0.50;;
11173;SDS011;5643;50.856;12.088;2023-07-29T09:59:33;0.40;;;0.40;;
11173;SDS011;5643;50.856;12.088;2023-07-29T10:02:02;0.43;;;0.43;;
11173;SDS011;5643;50.856;12.088;2023-07-29T10:04:30;0.50;;;0.50;;
11173;SDS011;5643;50.856;12.088;2023-07-29T10:07:03;0.60;;;0.60;;
11173;SDS011;5643;50.856;12.088;2023-07-29T10:09:35;0.65;;;0.65;;
11173;SDS011;5643;50.856;12.088;2023-07-29T10:12:09;0.60;;;0.60;;
11173;SDS011;5643;50.856;12.088;2023-07-29T10:14:39;0.50;;;0.50;;
11173;SDS011;5643;50.856;12.088;2023-07-29T10:17:11;0.45;;;0.45;;
11173;SDS011;5643;50.856;12.088;2023-07-29T10:19:40;0.57;;;0.57;;
11173;SDS011;5643;50.856;12.088;2023-07-29T10:22:20;0.40;;;0.40;;
11173;SDS011;5643;50.856;12.088;2023-07-29T10:24:51;0.43;;;0.43;;
11173;SDS011;5643;50.856;12.088;2023-07-29T10:27:22;0.43;;;0.43;;
11173;SDS011;5643;50.856;12.088;2023-07-29T10:29:53;0.50;;;0.50;;
11173;SDS011;5643;50.856;12.088;2023-07-29T10:32:26;0.60;;;0.60;;
11173;SDS011;5643;50.856;12.088;2023-07-29T10:34:54;0.40;;;0.40;;
11173;SDS011;5643;50.856;12.088;2023-07-29T10:37:24;0.50;;;0.50;;
11173;SDS011;5643;50.856;12.088;2023-07-29T10:39:54;0.50;;;0.50;;
11173;SDS011;5643;50.856;12.088;2023-07-29T10:42:26;0.50;;;0.50;;
11173;SDS011;5643;50.856;12.088;2023-07-29T10:44:57;0.50;;;0.50;;
11173;SDS011;5643;50.856;12.088;2023-07-29T10:47:27;0.55;;;0.55;;
11173;SDS011;5643;50.856;12.088;2023-07-29T10:49:58;0.60;;;0.60;;
11173;SDS011;5643;50.856;12.088;2023-07-29T10:52:30;0.40;;;0.40;;
11173;SDS011;5643;50.856;12.088;2023-07-29T10:55:02;0.60;;;0.60;;
11173;SDS011;5643;50.856;12.088;2023-07-29T10:57:41;0.50;;;0.50;;
11173;SDS011;5643;50.856;12.088;2023-07-29T11:00:20;0.70;;;0.70;;
11173;SDS011;5643;50.856;12.088;2023-07-29T11:03:03;0.70;;;0.70;;
11173;SDS011;5643;50.856;12.088;2023-07-29T11:05:43;0.63;;;0.63;;
11173;SDS011;5643;50.856;12.088;2023-07-29T11:08:20;0.50;;;0.50;;
11173;SDS011;5643;50.856;12.088;2023-07-29T11:10:58;0.73;;;0.73;;
11173;SDS011;5643;50.856;12.088;2023-07-29T11:13:29;0.70;;;0.68;;
11173;SDS011;5643;50.856;12.088;2023-07-29T11:15:58;0.70;;;0.70;;
11173;SDS011;5643;50.856;12.088;2023-07-29T11:18:27;0.75;;;0.70;;
11173;SDS011;5643;50.856;12.088;2023-07-29T11:20:56;0.60;;;0.60;;
11173;SDS011;5643;50.856;12.088;2023-07-29T11:23:33;0.80;;;0.80;;
11173;SDS011;5643;50.856;12.088;2023-07-29T11:26:03;0.70;;;0.70;;
11173;SDS011;5643;50.856;12.088;2023-07-29T11:28:37;0.70;;;0.70;;
11173;SDS011;5643;50.856;12.088;2023-07-29T11:31:04;0.60;;;0.60;;
11173;SDS011;5643;50.856;12.088;2023-07-29T11:33:38;0.50;;;0.50;;
11173;SDS011;5643;50.856;12.088;2023-07-29T11:36:19;0.68;;;0.68;;
11173;SDS011;5643;50.856;12.088;2023-07-29T11:38:51;0.50;;;0.50;;
11173;SDS011;5643;50.856;12.088;2023-07-29T11:41:22;0.60;;;0.60;;
11173;SDS011;5643;50.856;12.088;2023-07-29T11:43:52;0.50;;;0.50;;
11173;SDS011;5643;50.856;12.088;2023-07-29T11:46:24;0.70;;;0.70;;
11173;SDS011;5643;50.856;12.088;2023-07-29T11:49:19;0.70;;;0.70;;
11173;SDS011;5643;50.856;12.088;2023-07-29T11:51:50;0.70;;;0.70;;
11173;SDS011;5643;50.856;12.088;2023-07-29T11:54:24;0.80;;;0.70;;
11173;SDS011;5643;50.856;12.088;2023-07-29T11:56:59;1.58;;;1.48;;
11173;SDS011;5643;50.856;12.088;2023-07-29T11:59:30;1.50;;;1.40;;
11173;SDS011;5643;50.856;12.088;2023-07-29T12:01:58;1.55;;;1.45;;
11173;SDS011;5643;50.856;12.088;2023-07-29T12:04:31;1.00;;;1.00;;
11173;SDS011;5643;50.856;12.088;2023-07-29T12:07:01;1.00;;;1.00;;
11173;SDS011;5643;50.856;12.088;2023-07-29T12:09:38;0.60;;;0.60;;
11173;SDS011;5643;50.856;12.088;2023-07-29T12:12:27;0.77;;;0.65;;
11173;SDS011;5643;50.856;12.088;2023-07-29T12:14:54;0.50;;;0.50;;
11173;SDS011;5643;50.856;12.088;2023-07-29T12:17:31;0.70;;;0.70;;
11173;SDS011;5643;50.856;12.088;2023-07-29T12:19:59;0.50;;;0.50;;
11173;SDS011;5643;50.856;12.088;2023-07-29T12:22:30;0.70;;;0.70;;
11173;SDS011;5643;50.856;12.088;2023-07-29T12:24:59;0.50;;;0.50;;
11173;SDS011;5643;50.856;12.088;2023-07-29T12:27:30;0.60;;;0.60;;
11173;SDS011;5643;50.856;12.088;2023-07-29T12:29:58;0.50;;;0.50;;
11173;SDS011;5643;50.856;12.088;2023-07-29T12:32:29;0.80;;;0.80;;
11173;SDS011;5643;50.856;12.088;2023-07-29T12:34:58;0.60;;;0.60;;
11173;SDS011;5643;50.856;12.088;2023-07-29T12:37:31;1.02;;;0.60;;
11173;SDS011;5643;50.856;12.088;2023-07-29T12:40:03;0.50;;;0.50;;
11173;SDS011;5643;50.856;12.088;2023-07-29T12:42:31;0.50;;;0.50;;
11173;SDS011;5643;50.856;12.088;2023-07-29T12:44:59;0.60;;;0.60;;
11173;SDS011;5643;50.856;12.088;2023-07-29T12:47:27;1.33;;;0.50;;
11173;SDS011;5643;50.856;12.088;2023-07-29T12:49:56;0.45;;;0.45;;
11173;SDS011;5643;50.856;12.088;2023-07-29T12:52:25;0.50;;;0.50;;
11173;SDS011;5643;50.856;12.088;2023-07-29T12:54:54;1.48;;;0.40;;
11173;SDS011;5643;50.856;12.088;2023-07-29T12:57:24;0.60;;;0.60;;
11173;SDS011;5643;50.856;12.088;2023-07-29T12:59:52;0.45;;;0.45;;
11173;SDS011;5643;50.856;12.088;2023-07-29T13:02:20;0.40;;;0.40;;
11173;SDS011;5643;50.856;12.088;2023-07-29T13:04:48;0.40;;;0.40;;
11173;SDS011;5643;50.856;12.088;2023-07-29T13:07:23;0.50;;;0.50;;
11173;SDS011;5643;50.856;12.088;2023-07-29T13:09:51;0.55;;;0.55;;
11173;SDS011;5643;50.856;12.088;2023-07-29T13:12:20;0.40;;;0.40;;
11173;SDS011;5643;50.856;12.088;2023-07-29T13:14:49;0.50;;;0.50;;
11173;SDS011;5643;50.856;12.088;2023-07-29T13:17:17;0.40;;;0.40;;
11173;SDS011;5643;50.856;12.088;2023-07-29T13:19:47;0.60;;;0.60;;
11173;SDS011;5643;50.856;12.088;2023-07-29T13:22:15;0.40;;;0.40;;
11173;SDS011;5643;50.856;12.088;2023-07-29T13:24:43;0.85;;;0.47;;
11173;SDS011;5643;50.856;12.088;2023-07-29T13:27:15;0.50;;;0.50;;
11173;SDS011;5643;50.856;12.088;2023-07-29T13:29:54;0.60;;;0.60;;
11173;SDS011;5643;50.856;12.088;2023-07-29T13:32:22;0.70;;;0.70;;
11173;SDS011;5643;50.856;12.088;2023-07-29T13:34:51;0.50;;;0.50;;
11173;SDS011;5643;50.856;12.088;2023-07-29T13:37:19;0.50;;;0.50;;
11173;SDS011;5643;50.856;12.088;2023-07-29T13:39:48;0.40;;;0.40;;
11173;SDS011;5643;50.856;12.088;2023-07-29T13:42:18;0.95;;;0.52;;
11173;SDS011;5643;50.856;12.088;2023-07-29T13:44:47;1.75;;;0.75;;
11173;SDS011;5643;50.856;12.088;2023-07-29T13:47:21;0.50;;;0.50;;
11173;SDS011;5643;50.856;12.088;2023-07-29T13:49:49;0.50;;;0.50;;
11173;SDS011;5643;50.856;12.088;2023-07-29T13:52:19;0.40;;;0.40;;
11173;SDS011;5643;50.856;12.088;2023-07-29T13:54:47;0.40;;;0.40;;
11173;SDS011;5643;50.856;12.088;2023-07-29T13:57:15;0.50;;;0.50;;
11173;SDS011;5643;50.856;12.088;2023-07-29T13:59:43;0.70;;;0.70;;
11173;SDS011;5643;50.856;12.088;2023-07-29T14:02:12;0.40;;;0.40;;
11173;SDS011;5643;50.856;12.088;2023-07-29T14:04:45;0.50;;;0.50;;
11173;SDS011;5643;50.856;12.088;2023-07-29T14:07:14;0.70;;;0.70;;
11173;SDS011;5643;50.856;12.088;2023-07-29T14:09:42;0.40;;;0.40;;
11173;SDS011;5643;50.856;12.088;2023-07-29T14:12:10;0.57;;;0.57;;
11173;SDS011;5643;50.856;12.088;2023-07-29T14:14:40;0.52;;;0.52;;
11173;SDS011;5643;50.856;12.088;2023-07-29T14:17:08;0.50;;;0.50;;
11173;SDS011;5643;50.856;12.088;2023-07-29T14:19:37;1.05;;;0.50;;
11173;SDS011;5643;50.856;12.088;2023-07-29T14:22:15;0.60;;;0.60;;
11173;SDS011;5643;50.856;12.088;2023-07-29T14:24:49;0.60;;;0.60;;
11173;SDS011;5643;50.856;12.088;2023-07-29T14:27:18;0.50;;;0.50;;
11173;SDS011;5643;50.856;12.088;2023-07-29T14:29:46;0.68;;;0.68;;
11173;SDS011;5643;50.856;12.088;2023-07-29T14:32:14;1.08;;;0.50;;
11173;SDS011;5643;50.856;12.088;2023-07-29T14:34:41;0.90;;;0.77;;
11173;SDS011;5643;50.856;12.088;2023-07-29T14:37:09;0.65;;;0.65;;
11173;SDS011;5643;50.856;12.088;2023-07-29T14:39:39;0.70;;;0.70;;
11173;SDS011;5643;50.856;12.088;2023-07-29T14:42:08;0.70;;;0.70;;
11173;SDS011;5643;50.856;12.088;2023-07-29T14:44:43;0.60;;;0.60;;
11173;SDS011;5643;50.856;12.088;2023-07-29T14:47:13;0.50;;;0.50;;
11173;SDS011;5643;50.856;12.088;2023-07-29T14:49:41;0.57;;;0.57;;
11173;SDS011;5643;50.856;12.088;2023-07-29T14:52:10;0.50;;;0.50;;
11173;SDS011;5643;50.856;12.088;2023-07-29T14:54:42;0.55;;;0.52;;
11173;SDS011;5643;50.856;12.088;2023-07-29T14:57:10;0.50;;;0.50;;
11173;SDS011;5643;50.856;12.088;2023-07-29T14:59:39;0.70;;;0.70;;
11173;SDS011;5643;50.856;12.088;2023-07-29T15:02:10;0.68;;;0.68;;
11173;SDS011;5643;50.856;12.088;2023-07-29T15:04:38;0.50;;;0.50;;
11173;SDS011;5643;50.856;12.088;2023-07-29T15:07:07;0.77;;;0.70;;